Lake Villa, Illinois
Current Conditions -  °F | °C
As of 4:55 PM on Wednesday 22 Oct 2014 (Local Time) from KUGN Reporting Station
Clear Clear  
Wind Chill: 45°   Ceiling: Unl
Heat Index: 48°   Visibility: 10mi
Dew Point: 39°   Wind: 7mph
Humidity: 71%   Direction: 110°ESE
Pressure: 30.28"   Gusts: NA
Location:  42.42°N, 88.07°W
Report Text: KUGN 222155Z 11006KT 10SM CLR 09/04 A3028 RMK AO2 SLP261 T00890039
Loading
Personal Weather Stations






























Interactive Weather Map New forecast layout! Learn more

10-Day Weather Forecast

Advertisements
Track Severe Weather on mobile